You are listening to:
KJFK Tower - New York, New York, United States

KJFK 161351Z 24008KT 10SM FEW060 SCT110 SCT150 BKN250 19/07 A3028 RMK AO2 SLP255 T01940072

If stream doesn't start automatically press the play button
If stream stops then reload player then press play